Terminal Aerodrome Forecast
Issued by NWS

Current Version | Previous Version | Text Only | Print | Product List | Glossary On
Versions: 1 2 3 4 5 6 7 8 9 10 11 12 13 14 15
611
FTUS42 KFFC 031947 AAA
TAFPDK
TAF AMD
KPDK 031947Z 0320/0418 05005KT P6SM BKN120
     FM040000 07005KT P6SM VCSH OVC070
      TEMPO 0402/0406 -RA BKN050
     FM040600 09007KT 6SM -RADZ OVC040
     FM041200 09010G16KT 5SM -RADZ BKN025
     FM041500 09012G18KT 4SM -RADZ BR BKN012=

USA.gov is the U.S. government's official web portal to all federal, state and local government web resources and services.